sensor_id;sensor_type;location;lat;lon;timestamp;P1;durP1;ratioP1;P2;durP2;ratioP2
43837;SDS011;29493;46.516;6.638;2022-08-19T00:01:19;6.32;;;4.45;;
43837;SDS011;29493;46.516;6.638;2022-08-19T00:03:44;5.60;;;3.90;;
43837;SDS011;29493;46.516;6.638;2022-08-19T00:06:10;5.70;;;4.00;;
43837;SDS011;29493;46.516;6.638;2022-08-19T00:08:36;7.28;;;4.13;;
43837;SDS011;29493;46.516;6.638;2022-08-19T00:11:02;5.95;;;3.95;;
43837;SDS011;29493;46.516;6.638;2022-08-19T00:13:28;7.35;;;4.50;;
43837;SDS011;29493;46.516;6.638;2022-08-19T00:15:55;7.70;;;4.47;;
43837;SDS011;29493;46.516;6.638;2022-08-19T00:18:21;6.03;;;3.92;;
43837;SDS011;29493;46.516;6.638;2022-08-19T00:20:47;5.47;;;3.78;;
43837;SDS011;29493;46.516;6.638;2022-08-19T00:23:13;6.28;;;3.33;;
43837;SDS011;29493;46.516;6.638;2022-08-19T00:25:40;5.50;;;3.28;;
43837;SDS011;29493;46.516;6.638;2022-08-19T00:28:05;4.50;;;2.90;;
43837;SDS011;29493;46.516;6.638;2022-08-19T00:30:32;5.00;;;2.92;;
43837;SDS011;29493;46.516;6.638;2022-08-19T00:32:58;4.20;;;2.53;;
43837;SDS011;29493;46.516;6.638;2022-08-19T00:35:24;3.72;;;2.40;;
43837;SDS011;29493;46.516;6.638;2022-08-19T00:37:52;3.50;;;2.20;;
43837;SDS011;29493;46.516;6.638;2022-08-19T00:40:19;3.30;;;1.83;;
43837;SDS011;29493;46.516;6.638;2022-08-19T00:42:46;3.70;;;1.92;;
43837;SDS011;29493;46.516;6.638;2022-08-19T00:45:14;3.00;;;1.67;;
43837;SDS011;29493;46.516;6.638;2022-08-19T00:47:44;3.58;;;1.80;;
43837;SDS011;29493;46.516;6.638;2022-08-19T00:50:11;4.53;;;2.10;;
43837;SDS011;29493;46.516;6.638;2022-08-19T00:52:43;4.10;;;2.35;;
43837;SDS011;29493;46.516;6.638;2022-08-19T00:55:19;4.55;;;2.90;;
43837;SDS011;29493;46.516;6.638;2022-08-19T00:57:49;4.55;;;2.90;;
43837;SDS011;29493;46.516;6.638;2022-08-19T01:00:20;5.28;;;3.00;;
43837;SDS011;29493;46.516;6.638;2022-08-19T01:02:47;4.38;;;2.90;;
43837;SDS011;29493;46.516;6.638;2022-08-19T01:05:15;5.07;;;3.20;;
43837;SDS011;29493;46.516;6.638;2022-08-19T01:07:46;5.80;;;3.17;;
43837;SDS011;29493;46.516;6.638;2022-08-19T01:10:14;4.38;;;2.70;;
43837;SDS011;29493;46.516;6.638;2022-08-19T01:12:44;5.10;;;2.97;;
43837;SDS011;29493;46.516;6.638;2022-08-19T01:15:12;5.40;;;2.90;;
43837;SDS011;29493;46.516;6.638;2022-08-19T01:17:46;4.85;;;3.10;;
43837;SDS011;29493;46.516;6.638;2022-08-19T01:20:15;4.25;;;2.58;;
43837;SDS011;29493;46.516;6.638;2022-08-19T01:22:51;4.20;;;2.40;;
43837;SDS011;29493;46.516;6.638;2022-08-19T01:25:23;5.05;;;2.58;;
43837;SDS011;29493;46.516;6.638;2022-08-19T01:27:53;4.72;;;2.88;;
43837;SDS011;29493;46.516;6.638;2022-08-19T01:30:26;5.05;;;2.80;;
43837;SDS011;29493;46.516;6.638;2022-08-19T01:32:53;4.50;;;2.55;;
43837;SDS011;29493;46.516;6.638;2022-08-19T01:35:20;5.93;;;2.90;;
43837;SDS011;29493;46.516;6.638;2022-08-19T01:37:50;5.13;;;3.03;;
43837;SDS011;29493;46.516;6.638;2022-08-19T01:40:18;4.18;;;2.55;;
43837;SDS011;29493;46.516;6.638;2022-08-19T01:42:47;3.95;;;2.65;;
43837;SDS011;29493;46.516;6.638;2022-08-19T01:45:14;4.60;;;2.70;;
43837;SDS011;29493;46.516;6.638;2022-08-19T01:47:40;5.30;;;2.63;;
43837;SDS011;29493;46.516;6.638;2022-08-19T01:50:06;6.18;;;2.78;;
43837;SDS011;29493;46.516;6.638;2022-08-19T01:52:35;4.93;;;2.30;;
43837;SDS011;29493;46.516;6.638;2022-08-19T01:55:02;4.93;;;2.10;;
43837;SDS011;29493;46.516;6.638;2022-08-19T01:57:28;4.38;;;2.15;;
43837;SDS011;29493;46.516;6.638;2022-08-19T01:59:54;4.70;;;2.55;;
43837;SDS011;29493;46.516;6.638;2022-08-19T02:02:20;5.23;;;2.90;;
43837;SDS011;29493;46.516;6.638;2022-08-19T02:04:45;5.43;;;2.85;;
43837;SDS011;29493;46.516;6.638;2022-08-19T02:07:11;4.63;;;2.93;;
43837;SDS011;29493;46.516;6.638;2022-08-19T02:09:37;5.65;;;3.03;;
43837;SDS011;29493;46.516;6.638;2022-08-19T02:12:03;4.75;;;3.13;;
43837;SDS011;29493;46.516;6.638;2022-08-19T02:14:29;4.40;;;2.90;;
43837;SDS011;29493;46.516;6.638;2022-08-19T02:16:55;4.70;;;2.58;;
43837;SDS011;29493;46.516;6.638;2022-08-19T02:19:21;4.40;;;2.67;;
43837;SDS011;29493;46.516;6.638;2022-08-19T02:21:46;5.93;;;2.90;;
43837;SDS011;29493;46.516;6.638;2022-08-19T02:24:12;4.30;;;2.90;;
43837;SDS011;29493;46.516;6.638;2022-08-19T02:26:39;5.38;;;3.22;;
43837;SDS011;29493;46.516;6.638;2022-08-19T02:29:05;4.32;;;2.80;;
43837;SDS011;29493;46.516;6.638;2022-08-19T02:31:31;4.10;;;2.37;;
43837;SDS011;29493;46.516;6.638;2022-08-19T02:33:56;4.28;;;2.50;;
43837;SDS011;29493;46.516;6.638;2022-08-19T02:36:23;4.95;;;2.50;;
43837;SDS011;29493;46.516;6.638;2022-08-19T02:38:49;5.47;;;2.97;;
43837;SDS011;29493;46.516;6.638;2022-08-19T02:41:19;5.03;;;2.72;;
43837;SDS011;29493;46.516;6.638;2022-08-19T02:43:46;5.20;;;2.60;;
43837;SDS011;29493;46.516;6.638;2022-08-19T02:46:14;5.27;;;2.60;;
43837;SDS011;29493;46.516;6.638;2022-08-19T02:48:43;5.75;;;2.70;;
43837;SDS011;29493;46.516;6.638;2022-08-19T02:51:09;5.53;;;2.88;;
43837;SDS011;29493;46.516;6.638;2022-08-19T02:53:41;5.53;;;2.75;;
43837;SDS011;29493;46.516;6.638;2022-08-19T02:56:07;5.40;;;2.90;;
43837;SDS011;29493;46.516;6.638;2022-08-19T02:58:33;6.10;;;2.80;;
43837;SDS011;29493;46.516;6.638;2022-08-19T03:00:59;4.03;;;2.70;;
43837;SDS011;29493;46.516;6.638;2022-08-19T03:03:24;4.45;;;2.60;;
43837;SDS011;29493;46.516;6.638;2022-08-19T03:05:51;5.23;;;2.70;;
43837;SDS011;29493;46.516;6.638;2022-08-19T03:08:17;4.20;;;2.50;;
43837;SDS011;29493;46.516;6.638;2022-08-19T03:10:44;4.63;;;2.50;;
43837;SDS011;29493;46.516;6.638;2022-08-19T03:13:12;5.25;;;2.92;;
43837;SDS011;29493;46.516;6.638;2022-08-19T03:15:44;5.25;;;2.70;;
43837;SDS011;29493;46.516;6.638;2022-08-19T03:18:11;4.23;;;2.60;;
43837;SDS011;29493;46.516;6.638;2022-08-19T03:20:45;4.97;;;2.45;;
43837;SDS011;29493;46.516;6.638;2022-08-19T03:23:13;4.72;;;2.38;;
43837;SDS011;29493;46.516;6.638;2022-08-19T03:25:40;4.20;;;2.30;;
43837;SDS011;29493;46.516;6.638;2022-08-19T03:28:09;4.25;;;2.13;;
43837;SDS011;29493;46.516;6.638;2022-08-19T03:30:39;3.37;;;1.70;;
43837;SDS011;29493;46.516;6.638;2022-08-19T03:33:09;3.58;;;1.40;;
43837;SDS011;29493;46.516;6.638;2022-08-19T03:35:39;3.88;;;1.98;;
43837;SDS011;29493;46.516;6.638;2022-08-19T03:38:05;3.90;;;1.90;;
43837;SDS011;29493;46.516;6.638;2022-08-19T03:40:32;6.75;;;2.30;;
43837;SDS011;29493;46.516;6.638;2022-08-19T03:43:01;4.38;;;1.60;;
43837;SDS011;29493;46.516;6.638;2022-08-19T03:45:27;2.83;;;1.30;;
43837;SDS011;29493;46.516;6.638;2022-08-19T03:47:53;2.50;;;1.10;;
43837;SDS011;29493;46.516;6.638;2022-08-19T03:50:18;3.47;;;1.50;;
43837;SDS011;29493;46.516;6.638;2022-08-19T03:52:48;3.20;;;1.70;;
43837;SDS011;29493;46.516;6.638;2022-08-19T03:55:17;3.10;;;1.45;;
43837;SDS011;29493;46.516;6.638;2022-08-19T03:58:34;3.70;;;1.50;;
43837;SDS011;29493;46.516;6.638;2022-08-19T04:01:00;3.78;;;1.77;;
43837;SDS011;29493;46.516;6.638;2022-08-19T04:03:26;4.37;;;1.80;;
43837;SDS011;29493;46.516;6.638;2022-08-19T04:05:52;4.53;;;2.00;;
43837;SDS011;29493;46.516;6.638;2022-08-19T04:08:19;4.28;;;1.88;;
43837;SDS011;29493;46.516;6.638;2022-08-19T04:10:46;5.65;;;2.03;;
43837;SDS011;29493;46.516;6.638;2022-08-19T04:13:14;3.63;;;2.10;;
43837;SDS011;29493;46.516;6.638;2022-08-19T04:15:41;4.45;;;1.98;;
43837;SDS011;29493;46.516;6.638;2022-08-19T04:18:08;5.57;;;2.15;;
43837;SDS011;29493;46.516;6.638;2022-08-19T04:20:45;4.13;;;2.00;;
43837;SDS011;29493;46.516;6.638;2022-08-19T04:23:13;3.75;;;1.70;;
43837;SDS011;29493;46.516;6.638;2022-08-19T04:25:41;3.67;;;1.50;;
43837;SDS011;29493;46.516;6.638;2022-08-19T04:28:08;4.25;;;1.80;;
43837;SDS011;29493;46.516;6.638;2022-08-19T04:30:39;3.33;;;1.45;;
43837;SDS011;29493;46.516;6.638;2022-08-19T04:33:11;3.58;;;1.60;;
43837;SDS011;29493;46.516;6.638;2022-08-19T04:35:41;3.55;;;1.50;;
43837;SDS011;29493;46.516;6.638;2022-08-19T04:38:09;3.92;;;1.10;;
43837;SDS011;29493;46.516;6.638;2022-08-19T04:40:43;3.30;;;1.30;;
43837;SDS011;29493;46.516;6.638;2022-08-19T04:43:29;2.50;;;1.00;;
43837;SDS011;29493;46.516;6.638;2022-08-19T04:45:55;3.50;;;1.10;;
43837;SDS011;29493;46.516;6.638;2022-08-19T04:48:22;3.30;;;1.23;;
43837;SDS011;29493;46.516;6.638;2022-08-19T04:50:55;3.35;;;1.17;;
43837;SDS011;29493;46.516;6.638;2022-08-19T04:53:29;2.92;;;1.38;;
43837;SDS011;29493;46.516;6.638;2022-08-19T04:55:57;3.08;;;1.27;;
43837;SDS011;29493;46.516;6.638;2022-08-19T04:58:27;4.72;;;1.63;;
43837;SDS011;29493;46.516;6.638;2022-08-19T05:00:53;3.95;;;1.60;;
43837;SDS011;29493;46.516;6.638;2022-08-19T05:03:19;3.10;;;1.20;;
43837;SDS011;29493;46.516;6.638;2022-08-19T05:05:46;3.92;;;1.40;;
43837;SDS011;29493;46.516;6.638;2022-08-19T05:08:17;3.60;;;1.30;;
43837;SDS011;29493;46.516;6.638;2022-08-19T05:10:46;2.97;;;1.30;;
43837;SDS011;29493;46.516;6.638;2022-08-19T05:13:17;3.50;;;1.20;;
43837;SDS011;29493;46.516;6.638;2022-08-19T05:15:44;3.40;;;1.67;;
43837;SDS011;29493;46.516;6.638;2022-08-19T05:18:19;2.85;;;1.30;;
43837;SDS011;29493;46.516;6.638;2022-08-19T05:21:06;3.05;;;1.40;;
43837;SDS011;29493;46.516;6.638;2022-08-19T05:23:55;2.90;;;1.25;;
43837;SDS011;29493;46.516;6.638;2022-08-19T05:26:21;4.00;;;1.60;;
43837;SDS011;29493;46.516;6.638;2022-08-19T05:28:46;4.15;;;1.63;;
43837;SDS011;29493;46.516;6.638;2022-08-19T05:31:12;3.38;;;1.55;;
43837;SDS011;29493;46.516;6.638;2022-08-19T05:33:39;4.03;;;2.10;;
43837;SDS011;29493;46.516;6.638;2022-08-19T05:36:05;4.38;;;2.20;;
43837;SDS011;29493;46.516;6.638;2022-08-19T05:38:33;5.32;;;2.30;;
43837;SDS011;29493;46.516;6.638;2022-08-19T05:41:05;5.65;;;2.30;;
43837;SDS011;29493;46.516;6.638;2022-08-19T05:43:32;5.72;;;2.80;;
43837;SDS011;29493;46.516;6.638;2022-08-19T05:45:58;5.17;;;2.60;;
43837;SDS011;29493;46.516;6.638;2022-08-19T05:48:24;5.20;;;2.58;;
43837;SDS011;29493;46.516;6.638;2022-08-19T05:50:50;5.63;;;2.57;;
43837;SDS011;29493;46.516;6.638;2022-08-19T05:53:16;7.78;;;2.75;;
43837;SDS011;29493;46.516;6.638;2022-08-19T05:55:42;7.50;;;2.50;;
43837;SDS011;29493;46.516;6.638;2022-08-19T05:58:07;6.38;;;2.85;;
43837;SDS011;29493;46.516;6.638;2022-08-19T06:00:34;5.67;;;2.90;;
43837;SDS011;29493;46.516;6.638;2022-08-19T06:03:01;8.15;;;2.95;;
43837;SDS011;29493;46.516;6.638;2022-08-19T06:05:31;6.80;;;2.63;;
43837;SDS011;29493;46.516;6.638;2022-08-19T06:07:57;6.03;;;2.92;;
43837;SDS011;29493;46.516;6.638;2022-08-19T06:10:26;7.80;;;3.00;;
43837;SDS011;29493;46.516;6.638;2022-08-19T06:12:53;8.07;;;3.10;;
43837;SDS011;29493;46.516;6.638;2022-08-19T06:15:19;8.63;;;3.10;;
43837;SDS011;29493;46.516;6.638;2022-08-19T06:17:46;5.18;;;2.60;;
43837;SDS011;29493;46.516;6.638;2022-08-19T06:20:13;7.03;;;3.10;;
43837;SDS011;29493;46.516;6.638;2022-08-19T06:22:41;8.48;;;3.10;;
43837;SDS011;29493;46.516;6.638;2022-08-19T06:25:08;6.93;;;3.10;;
43837;SDS011;29493;46.516;6.638;2022-08-19T06:27:34;8.02;;;3.05;;
43837;SDS011;29493;46.516;6.638;2022-08-19T06:30:01;7.10;;;3.28;;
43837;SDS011;29493;46.516;6.638;2022-08-19T06:32:28;7.43;;;2.80;;
43837;SDS011;29493;46.516;6.638;2022-08-19T06:34:54;8.05;;;3.67;;
43837;SDS011;29493;46.516;6.638;2022-08-19T06:37:20;14.70;;;3.40;;
43837;SDS011;29493;46.516;6.638;2022-08-19T06:39:48;6.82;;;3.03;;
43837;SDS011;29493;46.516;6.638;2022-08-19T06:42:14;7.60;;;3.17;;
43837;SDS011;29493;46.516;6.638;2022-08-19T06:44:45;7.60;;;3.25;;
43837;SDS011;29493;46.516;6.638;2022-08-19T06:47:15;7.68;;;3.40;;
43837;SDS011;29493;46.516;6.638;2022-08-19T06:49:43;6.30;;;2.90;;
43837;SDS011;29493;46.516;6.638;2022-08-19T06:52:11;6.47;;;3.47;;
43837;SDS011;29493;46.516;6.638;2022-08-19T06:54:37;7.70;;;3.72;;
43837;SDS011;29493;46.516;6.638;2022-08-19T06:57:04;9.98;;;3.92;;
43837;SDS011;29493;46.516;6.638;2022-08-19T06:59:32;9.35;;;4.13;;
43837;SDS011;29493;46.516;6.638;2022-08-19T07:01:59;8.27;;;4.10;;
43837;SDS011;29493;46.516;6.638;2022-08-19T07:04:32;9.45;;;4.80;;
43837;SDS011;29493;46.516;6.638;2022-08-19T07:07:04;10.65;;;4.75;;
43837;SDS011;29493;46.516;6.638;2022-08-19T07:09:33;10.02;;;4.97;;
43837;SDS011;29493;46.516;6.638;2022-08-19T07:12:03;10.82;;;5.18;;
43837;SDS011;29493;46.516;6.638;2022-08-19T07:14:32;10.53;;;5.43;;
43837;SDS011;29493;46.516;6.638;2022-08-19T07:17:03;10.50;;;5.30;;
43837;SDS011;29493;46.516;6.638;2022-08-19T07:19:31;9.13;;;5.38;;
43837;SDS011;29493;46.516;6.638;2022-08-19T07:22:00;9.10;;;5.13;;
43837;SDS011;29493;46.516;6.638;2022-08-19T07:24:27;10.57;;;5.63;;
43837;SDS011;29493;46.516;6.638;2022-08-19T07:26:55;8.80;;;5.30;;
43837;SDS011;29493;46.516;6.638;2022-08-19T07:29:26;10.13;;;4.70;;
43837;SDS011;29493;46.516;6.638;2022-08-19T07:31:54;8.90;;;5.10;;
43837;SDS011;29493;46.516;6.638;2022-08-19T07:34:24;9.90;;;5.38;;
43837;SDS011;29493;46.516;6.638;2022-08-19T07:36:51;9.45;;;5.07;;
43837;SDS011;29493;46.516;6.638;2022-08-19T07:39:37;9.70;;;5.60;;
43837;SDS011;29493;46.516;6.638;2022-08-19T07:42:05;9.00;;;5.45;;
43837;SDS011;29493;46.516;6.638;2022-08-19T07:44:35;10.40;;;5.88;;
43837;SDS011;29493;46.516;6.638;2022-08-19T07:47:03;11.68;;;5.47;;
43837;SDS011;29493;46.516;6.638;2022-08-19T07:49:30;9.23;;;5.53;;
43837;SDS011;29493;46.516;6.638;2022-08-19T07:52:05;8.77;;;5.63;;
43837;SDS011;29493;46.516;6.638;2022-08-19T07:54:33;9.88;;;5.97;;
43837;SDS011;29493;46.516;6.638;2022-08-19T07:57:01;8.65;;;5.60;;
43837;SDS011;29493;46.516;6.638;2022-08-19T07:59:27;9.40;;;5.78;;
43837;SDS011;29493;46.516;6.638;2022-08-19T08:01:53;10.88;;;6.60;;
43837;SDS011;29493;46.516;6.638;2022-08-19T08:04:20;9.65;;;6.28;;
43837;SDS011;29493;46.516;6.638;2022-08-19T08:07:05;8.40;;;5.40;;
43837;SDS011;29493;46.516;6.638;2022-08-19T08:09:51;9.35;;;5.05;;
43837;SDS011;29493;46.516;6.638;2022-08-19T08:12:19;9.52;;;5.57;;
43837;SDS011;29493;46.516;6.638;2022-08-19T08:14:50;10.07;;;5.88;;
43837;SDS011;29493;46.516;6.638;2022-08-19T08:17:20;10.75;;;5.60;;
43837;SDS011;29493;46.516;6.638;2022-08-19T08:19:47;10.57;;;5.53;;
43837;SDS011;29493;46.516;6.638;2022-08-19T08:22:16;10.63;;;6.30;;
43837;SDS011;29493;46.516;6.638;2022-08-19T08:25:06;8.77;;;5.75;;
43837;SDS011;29493;46.516;6.638;2022-08-19T08:27:37;10.73;;;5.68;;
43837;SDS011;29493;46.516;6.638;2022-08-19T08:30:06;13.38;;;5.75;;
43837;SDS011;29493;46.516;6.638;2022-08-19T08:32:37;10.05;;;5.50;;
43837;SDS011;29493;46.516;6.638;2022-08-19T08:35:05;8.40;;;5.80;;
43837;SDS011;29493;46.516;6.638;2022-08-19T08:37:32;9.98;;;5.93;;
43837;SDS011;29493;46.516;6.638;2022-08-19T08:39:58;8.70;;;5.53;;
43837;SDS011;29493;46.516;6.638;2022-08-19T08:42:27;9.13;;;6.03;;
43837;SDS011;29493;46.516;6.638;2022-08-19T08:45:00;9.88;;;6.43;;
43837;SDS011;29493;46.516;6.638;2022-08-19T08:47:32;9.50;;;6.25;;
43837;SDS011;29493;46.516;6.638;2022-08-19T08:50:15;9.68;;;6.50;;
43837;SDS011;29493;46.516;6.638;2022-08-19T08:52:52;9.57;;;6.72;;
43837;SDS011;29493;46.516;6.638;2022-08-19T08:55:23;11.80;;;6.60;;
43837;SDS011;29493;46.516;6.638;2022-08-19T08:57:53;9.60;;;6.22;;
43837;SDS011;29493;46.516;6.638;2022-08-19T09:00:28;10.13;;;6.80;;
43837;SDS011;29493;46.516;6.638;2022-08-19T09:03:02;9.45;;;6.40;;
43837;SDS011;29493;46.516;6.638;2022-08-19T09:10:53;10.07;;;6.38;;
43837;SDS011;29493;46.516;6.638;2022-08-19T09:16:12;8.38;;;5.50;;
43837;SDS011;29493;46.516;6.638;2022-08-19T09:18:44;11.23;;;6.10;;
43837;SDS011;29493;46.516;6.638;2022-08-19T09:21:13;10.57;;;6.47;;
43837;SDS011;29493;46.516;6.638;2022-08-19T09:23:40;11.52;;;6.15;;
43837;SDS011;29493;46.516;6.638;2022-08-19T09:26:06;10.23;;;6.70;;
43837;SDS011;29493;46.516;6.638;2022-08-19T09:28:34;8.95;;;5.88;;
43837;SDS011;29493;46.516;6.638;2022-08-19T09:31:02;9.32;;;5.78;;
43837;SDS011;29493;46.516;6.638;2022-08-19T09:33:28;9.70;;;6.00;;
43837;SDS011;29493;46.516;6.638;2022-08-19T09:38:40;8.77;;;5.72;;
43837;SDS011;29493;46.516;6.638;2022-08-19T09:41:08;10.95;;;5.57;;
43837;SDS011;29493;46.516;6.638;2022-08-19T09:43:37;8.32;;;5.80;;
43837;SDS011;29493;46.516;6.638;2022-08-19T09:46:04;7.60;;;5.15;;
43837;SDS011;29493;46.516;6.638;2022-08-19T09:48:50;8.48;;;5.63;;
43837;SDS011;29493;46.516;6.638;2022-08-19T09:51:21;7.45;;;5.22;;
43837;SDS011;29493;46.516;6.638;2022-08-19T09:53:49;7.88;;;5.20;;
43837;SDS011;29493;46.516;6.638;2022-08-19T09:56:17;8.80;;;5.38;;
43837;SDS011;29493;46.516;6.638;2022-08-19T09:58:44;7.57;;;5.40;;
43837;SDS011;29493;46.516;6.638;2022-08-19T10:01:15;9.63;;;5.10;;
43837;SDS011;29493;46.516;6.638;2022-08-19T10:03:50;8.85;;;5.00;;
43837;SDS011;29493;46.516;6.638;2022-08-19T10:06:19;7.95;;;4.95;;
43837;SDS011;29493;46.516;6.638;2022-08-19T10:08:46;7.72;;;4.88;;
43837;SDS011;29493;46.516;6.638;2022-08-19T10:11:12;8.52;;;5.10;;
43837;SDS011;29493;46.516;6.638;2022-08-19T10:13:41;7.55;;;4.55;;
43837;SDS011;29493;46.516;6.638;2022-08-19T10:16:09;7.93;;;5.28;;
43837;SDS011;29493;46.516;6.638;2022-08-19T10:18:41;7.68;;;5.00;;
43837;SDS011;29493;46.516;6.638;2022-08-19T10:21:15;7.47;;;4.95;;
43837;SDS011;29493;46.516;6.638;2022-08-19T10:23:42;7.07;;;4.78;;
43837;SDS011;29493;46.516;6.638;2022-08-19T10:26:14;8.05;;;4.78;;
43837;SDS011;29493;46.516;6.638;2022-08-19T10:28:44;9.20;;;5.43;;
43837;SDS011;29493;46.516;6.638;2022-08-19T10:31:11;9.02;;;5.35;;
43837;SDS011;29493;46.516;6.638;2022-08-19T10:33:40;9.70;;;5.73;;
43837;SDS011;29493;46.516;6.638;2022-08-19T10:36:08;8.18;;;5.60;;
43837;SDS011;29493;46.516;6.638;2022-08-19T10:38:43;10.20;;;6.10;;
43837;SDS011;29493;46.516;6.638;2022-08-19T10:41:11;10.55;;;5.50;;
43837;SDS011;29493;46.516;6.638;2022-08-19T10:43:40;10.18;;;5.90;;
43837;SDS011;29493;46.516;6.638;2022-08-19T10:46:07;9.00;;;5.87;;
43837;SDS011;29493;46.516;6.638;2022-08-19T10:48:35;8.88;;;5.93;;
43837;SDS011;29493;46.516;6.638;2022-08-19T10:51:01;10.30;;;5.75;;
43837;SDS011;29493;46.516;6.638;2022-08-19T10:53:46;8.70;;;5.80;;
43837;SDS011;29493;46.516;6.638;2022-08-19T10:56:13;8.07;;;5.37;;
43837;SDS011;29493;46.516;6.638;2022-08-19T10:58:57;8.02;;;5.10;;
43837;SDS011;29493;46.516;6.638;2022-08-19T11:01:24;8.45;;;5.90;;
43837;SDS011;29493;46.516;6.638;2022-08-19T11:03:55;8.00;;;5.55;;
43837;SDS011;29493;46.516;6.638;2022-08-19T11:06:22;8.70;;;6.10;;
43837;SDS011;29493;46.516;6.638;2022-08-19T11:08:50;8.57;;;6.03;;
43837;SDS011;29493;46.516;6.638;2022-08-19T11:11:17;8.93;;;6.35;;
43837;SDS011;29493;46.516;6.638;2022-08-19T11:13:43;9.38;;;5.75;;
43837;SDS011;29493;46.516;6.638;2022-08-19T11:16:12;8.52;;;5.15;;
43837;SDS011;29493;46.516;6.638;2022-08-19T11:18:44;8.30;;;5.47;;
43837;SDS011;29493;46.516;6.638;2022-08-19T11:23:44;8.05;;;5.38;;
43837;SDS011;29493;46.516;6.638;2022-08-19T11:26:14;7.50;;;5.45;;
43837;SDS011;29493;46.516;6.638;2022-08-19T11:28:41;7.90;;;5.50;;
43837;SDS011;29493;46.516;6.638;2022-08-19T11:31:11;8.47;;;5.33;;
43837;SDS011;29493;46.516;6.638;2022-08-19T11:33:38;8.88;;;5.85;;
43837;SDS011;29493;46.516;6.638;2022-08-19T11:36:04;7.90;;;5.23;;
43837;SDS011;29493;46.516;6.638;2022-08-19T11:38:30;10.88;;;6.50;;
43837;SDS011;29493;46.516;6.638;2022-08-19T11:40:56;9.00;;;6.15;;
43837;SDS011;29493;46.516;6.638;2022-08-19T11:43:22;10.93;;;6.57;;
43837;SDS011;29493;46.516;6.638;2022-08-19T11:45:48;8.82;;;5.70;;
43837;SDS011;29493;46.516;6.638;2022-08-19T11:48:14;10.03;;;5.80;;
43837;SDS011;29493;46.516;6.638;2022-08-19T11:50:39;9.18;;;5.78;;
43837;SDS011;29493;46.516;6.638;2022-08-19T11:53:07;8.45;;;5.60;;
